Aeroporto :
LOGIN :

Iscrizione | Disclaimer

   EN    FR    IT 

 










Sommario :    VFR   VFR Marginale   IFR   IFR Intensivo   IFR Molto Intensivo
Visibilità : 
Base nubi : 
>= 8 km
>= 3000ft
5 / 8 km
1000 / 3000 ft
1500m / 5 km
500 / 1000 ft
800 / 1500m
200 / 500 ft
< 800m
< 200 ft
Simboli :   Temporali  Nebbia  Neve Forte  Precipitazioni Forti  Vento > 20 kt
SIGMETs :   Varie  Temporali  Ghiacco  Turbolenza  Onda orograficha  Ceneri Vulcaniche






- Altitudine del aeroporto : 86 ft
- Codice IATA : HAU


ENHD - Haugesund

ULTIMO METAR :
  • 240850Z AUTO 09003KT 060V120 9999 RA SCT009/// BKN027/// BKN047/// 10/10 Q0982

METARs OBSOLETI :
  • 240820Z AUTO 17003KT 140V210 4300 RA ///023/// 10/09 Q0982
  • 240750Z 05004KT 020V080 7000 -RA BKN006 OVC015 10/09 Q0982
  • 240720Z 02007KT 8000 -RA SCT006 BKN029 10/09 Q0982
  • 240650Z 02008KT 9999 -RA SCT004 BKN006 OVC016 10/09 Q0983
  • 240620Z 01011KT 9999 -RA SCT004 BKN006 OVC020 10/09 Q0983

TAF TAF ENHD
Valido dal 24 a 09 ore il 24 a 18 ore UTC


240800Z 2409/2418 36070KT 9999 -RA SCT006 BKN015
BECMG 2409/2411 16020KT
TEMPO 2409/2418 4000 SHRA BKN008 SCT015CB
PROB30
TEMPO 2409/2411 TS
BECMG 2410/2412 21025G35KT



MetMap, La meteo Aeronautica in un colpo d'occhio ! - Copyright ORBIFLY Dicembre 2007 - Disclaimer

ORBIFLY MET'MAP TEAM :

Programmazione e sviluppo : Alexandra Zaïnal
Concezione : Baudouin d'Aumeries
Aiuto per la programmazione : Marc-Olivier Méhu
Supporto tecnico e logistico : Manuel Goepfert
Aiuto per la traduzione : Arnaldo La Scala

Contatto : metmap@orbifly.com




FONTI E CREDITI :

   NOAA